Detall de PIREP

Printer-friendly versionPDF version

[2014/11/01 21:43:00]
Flight IATA:CT2105
Pilot Number:044
Company ICAO:CAT
Aircraft Type:B463/A
PAX:90
Aircraft Registration:PAX
Departing Airport: LEBB
Destination Airport: LEVC
Alternate Airport:LEAL
Online: VATSIM
Route:PPN UM601 POSSY UN862 MLA UN860 SAURA
Flight Level:F290
No Slew and time accel
No pause
Crash detect
Detect pilot in Cockpit between each 30 and 45 minutes
21:43 Zero fuel Weight: 75440 Lbs, Fuel Weight: 11003 Lbs
21:43 VATSIM:LEBB 012130Z 00000KT 8000 FEW010 SCT030 17/16 Q1022 TEMPO BKN012
21:43 VATSIM:LEVC 012130Z 34004KT 9999 FEW018 SCT025 18/16 Q1024 NOSIG
21:44 Parking Brakes off
21:53 Take-off
21:53 Take off Weight: 85833 Lbs
21:53 Wind: 238º @ 000 Knots Heading: 116º
21:53 POS N43º 17´ 52´´ W002º 54´ 08´´
21:53 Gear Up: 149 Knots
21:53 Flaps:1 at 149 Knots
21:54 Flaps:0 at 132 Knots
22:08 Wind:166º@000 Knots Heading: 121º Ground Speed: 231 Knots Altitude 23766 ft
22:13 TOC
22:13 Fuel Weight: 7992 Lb
22:17 Flaps:4 at 279 Knots
22:17 Flaps:1 at 264 Knots
22:17 Flaps:0 at 259 Knots
22:17 TOD
22:17 Fuel Weight: 7597 Lb
22:18 TOC
22:18 Fuel Weight: 7513 Lb
22:23 Wind:174º@002 Knots Heading: 116º Ground Speed: 426 Knots Altitude 29271 ft
22:35 TOD
22:35 Fuel Weight: 5872 Lb
22:38 Wind:001º@008 Knots Heading: 199º Ground Speed: 407 Knots Altitude 24084 ft
22:53 Wind:340º@007 Knots Heading: 172º Ground Speed: 239 Knots Altitude 3503 ft
22:55 Flaps:1 at 194 Knots
22:56 Gear Down: 190 Knots
22:56 Flaps:2 at 174 Knots
22:57 Flaps:3 at 178 Knots
22:57 Flaps:4 at 146 Knots
22:58 TouchDown:Rate -153 ft/min Speed: 129 Knots
22:58 VATSIM:LEVC 012230Z 34004KT 9999 FEW020 18/15 Q1023 NOSIG
22:58 Land
22:58 Wind:343º@005 Knots
22:58 Heading: 295º
22:58 Flight Duration: 01:05
22:58 Landing Weight: 80224 Lbs
22:58 POS N39º 29´ 26´´ W000º 29´ 07´´
23:05 Parking brakes on
23:05 Block to Block Duration: 01:21
23:05 Final Fuel: 4503 Lbls
23:05 Spent Fuel: 6499 Lbls
23:05 Flight Length: 333 NM
23:05 TOD Land Length: 115 NM

Exportar CSV

Powered by Drupal - Modified by Danger4k